Time;durP1;ratioP1;P1;durP2;ratioP2;P2;SDS_P1;SDS_P2;PMS_P1;PMS_P2;Temp;Humidity;BMP_temperature;BMP_pressure;BME280_temperature;BME280_humidity;BME280_pressure;Samples;Min_cycle;Max_cycle;Signal;HPM_P1;HPM_P2
2022/08/03 00:00:54;;;;;;;1999.90;999.90;;;20.30;99.90;;;;;;5029637;28;20467;-72
2022/08/03 00:03:21;;;;;;;1999.90;999.90;;;20.40;99.90;;;;;;5034631;28;20557;-72
2022/08/03 00:05:49;;;;;;;1999.90;999.90;;;20.40;99.90;;;;;;5033344;28;21011;-73
2022/08/03 00:08:16;;;;;;;1999.90;999.90;;;20.50;99.90;;;;;;5042756;28;20451;-73
2022/08/03 00:10:42;;;;;;;1999.90;999.90;;;20.50;99.90;;;;;;5041524;28;20465;-72
2022/08/03 00:13:11;;;;;;;1999.90;999.90;;;20.40;99.90;;;;;;5042935;28;20468;-72
2022/08/03 00:15:38;;;;;;;1999.90;999.90;;;20.30;99.90;;;;;;5042516;28;20462;-72
2022/08/03 00:18:05;;;;;;;1999.90;999.90;;;20.30;99.90;;;;;;5040735;28;20578;-72
2022/08/03 00:20:32;;;;;;;1999.90;999.90;;;20.10;99.90;;;;;;5042740;28;20520;-72
2022/08/03 00:23:00;;;;;;;1999.90;999.90;;;20.10;99.90;;;;;;5041238;28;20482;-72
2022/08/03 00:25:27;;;;;;;1999.90;999.90;;;20.20;99.90;;;;;;5033428;28;20473;-72
2022/08/03 00:27:53;;;;;;;1999.90;999.90;;;20.20;99.90;;;;;;5037266;28;20863;-72
2022/08/03 00:30:20;;;;;;;1999.90;999.90;;;20.30;99.90;;;;;;5043680;28;20497;-73
2022/08/03 00:32:47;;;;;;;1999.90;999.90;;;20.30;99.90;;;;;;5043726;28;20559;-72
2022/08/03 00:35:13;;;;;;;1999.90;999.90;;;20.20;99.90;;;;;;5041809;28;20494;-72
2022/08/03 00:37:40;;;;;;;1999.90;999.90;;;20.20;99.90;;;;;;5042010;28;20532;-72
2022/08/03 00:40:10;;;;;;;1999.90;999.90;;;20.20;99.90;;;;;;5029618;28;20471;-73
2022/08/03 00:42:46;;;;;;;1999.90;999.90;;;20.20;99.90;;;;;;5044445;28;20486;-73
2022/08/03 00:45:13;;;;;;;1999.90;999.90;;;20.10;99.90;;;;;;5040289;28;20520;-74
2022/08/03 00:47:40;;;;;;;1999.90;999.90;;;20.00;99.90;;;;;;5043319;28;20466;-72
2022/08/03 00:50:07;;;;;;;1999.90;999.90;;;20.00;99.90;;;;;;5039097;28;21027;-72
2022/08/03 00:52:34;;;;;;;1999.90;999.90;;;20.00;99.90;;;;;;5037085;28;20494;-73
2022/08/03 00:55:01;;;;;;;1999.90;999.90;;;19.90;99.90;;;;;;5039936;28;20466;-72
2022/08/03 00:57:31;;;;;;;1999.90;999.90;;;19.90;99.90;;;;;;5032086;28;20516;-74
2022/08/03 00:59:58;;;;;;;1999.90;999.90;;;19.80;99.90;;;;;;5041163;28;20540;-72
2022/08/03 01:02:25;;;;;;;1999.90;999.90;;;19.90;99.90;;;;;;5039745;28;20922;-72
2022/08/03 01:04:52;;;;;;;1999.90;999.90;;;19.80;99.90;;;;;;5039633;28;20470;-72
2022/08/03 01:07:31;;;;;;;1999.90;999.90;;;19.60;99.90;;;;;;5038956;28;20485;-72
2022/08/03 01:10:02;;;;;;;1999.90;999.90;;;19.60;99.90;;;;;;5040730;28;20458;-73
2022/08/03 01:12:37;;;;;;;1999.90;999.90;;;19.50;99.90;;;;;;5037962;28;20540;-73
2022/08/03 01:15:11;;;;;;;1999.90;999.90;;;19.50;99.90;;;;;;5040797;28;20462;-72
2022/08/03 01:17:43;;;;;;;1999.90;999.90;;;19.50;99.90;;;;;;5047556;28;20462;-72
2022/08/03 01:20:12;;;;;;;1999.90;999.90;;;19.40;99.90;;;;;;5044205;28;20462;-72
2022/08/03 01:23:28;;;;;;;1999.90;999.90;;;19.40;99.90;;;;;;5048807;28;20485;-72
2022/08/03 01:26:05;;;;;;;1999.90;999.90;;;19.40;99.90;;;;;;5040459;28;20465;-72
2022/08/03 01:28:59;;;;;;;1999.90;999.90;;;19.40;99.90;;;;;;5042129;28;21166;-72
2022/08/03 01:31:32;;;;;;;1999.90;999.90;;;19.30;99.90;;;;;;5046187;28;20495;-72
2022/08/03 01:34:02;;;;;;;1999.90;999.90;;;19.30;99.90;;;;;;5046055;28;20465;-73
2022/08/03 01:36:35;;;;;;;1999.90;999.90;;;19.30;99.90;;;;;;5044582;28;20462;-72
2022/08/03 01:39:03;;;;;;;1999.90;999.90;;;19.30;99.90;;;;;;5038065;28;20471;-73
2022/08/03 01:41:33;;;;;;;1999.90;999.90;;;19.20;99.90;;;;;;5035974;28;20523;-72
2022/08/03 01:44:02;;;;;;;1999.90;999.90;;;19.30;99.90;;;;;;5045749;28;20461;-72
2022/08/03 01:46:32;;;;;;;1999.90;999.90;;;19.30;99.90;;;;;;5047732;28;20466;-72
2022/08/03 01:48:59;;;;;;;1999.90;999.90;;;19.10;99.90;;;;;;5044694;28;20959;-72
2022/08/03 01:51:27;;;;;;;1999.90;999.90;;;19.20;99.90;;;;;;5039628;28;20493;-72
2022/08/03 01:53:55;;;;;;;1999.90;999.90;;;19.10;99.90;;;;;;5038976;28;20466;-72
2022/08/03 01:56:24;;;;;;;1999.90;999.90;;;19.00;99.90;;;;;;5042521;28;20459;-73
2022/08/03 01:58:52;;;;;;;1999.90;999.90;;;18.90;99.90;;;;;;5040683;28;20544;-73
2022/08/03 02:01:22;;;;;;;1999.90;999.90;;;18.90;99.90;;;;;;5045850;28;21019;-72
2022/08/03 02:03:51;;;;;;;1999.90;999.90;;;18.80;99.90;;;;;;5042484;28;20458;-73
2022/08/03 02:06:20;;;;;;;1999.90;999.90;;;19.00;99.90;;;;;;5041143;28;20459;-70
2022/08/03 02:08:48;;;;;;;1999.90;999.90;;;18.80;99.90;;;;;;5047542;28;20534;-72
2022/08/03 02:11:15;;;;;;;1999.90;999.90;;;18.80;99.90;;;;;;5044248;28;20537;-72
2022/08/03 02:13:44;;;;;;;1999.90;999.90;;;18.70;99.90;;;;;;5046818;28;20466;-73
2022/08/03 02:16:11;;;;;;;1999.90;999.90;;;18.70;99.90;;;;;;5038020;28;20529;-72
2022/08/03 02:18:39;;;;;;;1999.90;999.90;;;18.60;99.90;;;;;;5047139;28;20474;-72
2022/08/03 02:21:10;;;;;;;1999.90;999.90;;;18.60;99.90;;;;;;5043103;28;21020;-72
2022/08/03 02:23:37;;;;;;;1999.90;999.90;;;18.60;99.90;;;;;;5037274;28;20450;-72
2022/08/03 02:26:06;;;;;;;1999.90;999.90;;;18.50;99.90;;;;;;5041930;28;20484;-71
2022/08/03 02:28:36;;;;;;;1999.90;999.90;;;18.50;99.90;;;;;;5042041;28;20528;-73
2022/08/03 02:31:06;;;;;;;1999.90;999.90;;;18.50;99.90;;;;;;5042641;28;20987;-73
2022/08/03 02:33:43;;;;;;;1999.90;999.90;;;18.60;99.90;;;;;;5035646;28;20454;-72
2022/08/03 02:36:14;;;;;;;1999.90;999.90;;;18.60;99.90;;;;;;5043757;28;20521;-72
2022/08/03 02:38:43;;;;;;;1999.90;999.90;;;18.50;99.90;;;;;;5042990;28;20484;-72
2022/08/03 02:41:16;;;;;;;1999.90;999.90;;;18.50;99.90;;;;;;5041235;28;20999;-73
2022/08/03 02:43:48;;;;;;;1999.90;999.90;;;18.50;99.90;;;;;;5043856;28;20517;-72
2022/08/03 02:46:19;;;;;;;1999.90;999.90;;;18.60;99.90;;;;;;5040818;28;20467;-72
2022/08/03 02:48:47;;;;;;;1999.90;999.90;;;18.60;99.90;;;;;;5045539;28;20508;-72
2022/08/03 02:51:18;;;;;;;1999.90;999.90;;;18.50;99.90;;;;;;5035397;28;21023;-72
2022/08/03 02:53:46;;;;;;;1999.90;999.90;;;18.50;99.90;;;;;;5045382;28;21113;-72
2022/08/03 02:56:14;;;;;;;1999.90;999.90;;;18.40;99.90;;;;;;5043557;28;20536;-72
2022/08/03 02:58:43;;;;;;;1999.90;999.90;;;18.20;99.90;;;;;;5046787;28;20486;-71
2022/08/03 03:01:11;;;;;;;1999.90;999.90;;;18.20;99.90;;;;;;5043008;28;20478;-71
2022/08/03 03:03:40;;;;;;;1999.90;999.90;;;18.20;99.90;;;;;;5042278;28;20488;-72
2022/08/03 03:06:07;;;;;;;1999.90;999.90;;;18.20;99.90;;;;;;5041694;28;20516;-72
2022/08/03 03:08:36;;;;;;;1999.90;999.90;;;18.20;99.90;;;;;;5045106;28;20463;-70
2022/08/03 03:11:04;;;;;;;1999.90;999.90;;;18.20;99.90;;;;;;5043993;28;20868;-72
2022/08/03 03:13:31;;;;;;;1999.90;999.90;;;18.20;99.90;;;;;;5041518;28;20467;-71
2022/08/03 03:16:01;;;;;;;1999.90;999.90;;;18.30;99.90;;;;;;5040641;28;20464;-69
2022/08/03 03:18:30;;;;;;;1999.90;999.90;;;18.30;99.90;;;;;;5045065;28;20455;-72
2022/08/03 03:20:58;;;;;;;1999.90;999.90;;;18.30;99.90;;;;;;5044198;28;20970;-72
2022/08/03 03:23:26;;;;;;;1999.90;999.90;;;18.30;99.90;;;;;;5043831;28;20463;-71
2022/08/03 03:25:57;;;;;;;1999.90;999.90;;;18.30;99.90;;;;;;5041452;28;20463;-72
2022/08/03 03:28:24;;;;;;;1999.90;999.90;;;18.20;99.90;;;;;;5040352;28;20460;-72
2022/08/03 03:30:52;;;;;;;1999.90;999.90;;;18.20;99.90;;;;;;5039367;28;20451;-72
2022/08/03 03:33:19;;;;;;;1999.90;999.90;;;18.20;99.90;;;;;;5035877;28;20462;-72
2022/08/03 03:35:46;;;;;;;1999.90;999.90;;;18.30;99.90;;;;;;5045713;28;20470;-70
2022/08/03 03:38:13;;;;;;;1999.90;999.90;;;18.30;99.90;;;;;;5035536;28;20513;-70
2022/08/03 03:40:40;;;;;;;1999.90;999.90;;;18.30;99.90;;;;;;5045502;28;20513;-72
2022/08/03 03:43:09;;;;;;;1999.90;999.90;;;18.30;99.90;;;;;;5041859;28;21065;-73
2022/08/03 03:45:36;;;;;;;1999.90;999.90;;;18.30;99.90;;;;;;5045459;28;20462;-72
2022/08/03 03:48:04;;;;;;;1999.90;999.90;;;18.30;99.90;;;;;;5043900;28;20686;-71
2022/08/03 03:50:33;;;;;;;1999.90;999.90;;;18.30;99.90;;;;;;5042512;28;20451;-72
2022/08/03 03:52:59;;;;;;;1999.90;999.90;;;18.40;99.90;;;;;;5040794;28;20486;-71
2022/08/03 03:55:26;;;;;;;1999.90;999.90;;;18.30;99.90;;;;;;5041057;28;20471;-72
2022/08/03 03:57:53;;;;;;;1999.90;999.90;;;18.30;99.90;;;;;;5045684;28;20462;-70
2022/08/03 04:00:21;;;;;;;1999.90;999.90;;;18.40;99.90;;;;;;5041345;28;20490;-72
2022/08/03 04:02:48;;;;;;;1999.90;999.90;;;18.50;99.90;;;;;;5044328;28;20861;-72
2022/08/03 04:11:07;;;;;;;1999.90;999.90;;;18.40;99.90;;;;;;5034719;28;20465;-71
2022/08/03 04:13:37;;;;;;;1999.90;999.90;;;18.50;99.90;;;;;;5041960;28;20458;-72
2022/08/03 04:16:07;;;;;;;1999.90;999.90;;;18.50;99.90;;;;;;5039491;28;20458;-71
2022/08/03 04:18:37;;;;;;;1999.90;999.90;;;18.60;99.90;;;;;;5042499;28;20450;-73
2022/08/03 04:21:06;;;;;;;1999.90;999.90;;;18.60;99.90;;;;;;5037203;28;20884;-73
2022/08/03 04:23:35;;;;;;;1999.90;999.90;;;18.70;99.90;;;;;;5043153;28;20482;-71
2022/08/03 04:26:03;;;;;;;1999.90;999.90;;;18.60;99.90;;;;;;5043033;28;20454;-70
2022/08/03 04:28:32;;;;;;;1999.90;999.90;;;18.70;99.90;;;;;;5041633;28;20463;-74
2022/08/03 04:31:00;;;;;;;1999.90;999.90;;;18.70;99.90;;;;;;5040655;28;20473;-73
2022/08/03 04:33:30;;;;;;;1999.90;999.90;;;18.80;99.90;;;;;;5042721;28;20456;-71
2022/08/03 04:35:58;;;;;;;1999.90;999.90;;;18.90;99.90;;;;;;5044250;28;21024;-72
2022/08/03 04:38:26;;;;;;;1999.90;999.90;;;19.00;99.90;;;;;;5041843;28;20463;-73
2022/08/03 04:40:56;;;;;;;1999.90;999.90;;;19.10;99.90;;;;;;5038075;28;20546;-70
2022/08/03 04:43:22;;;;;;;1999.90;999.90;;;19.20;99.90;;;;;;5039896;28;20463;-71
2022/08/03 04:45:52;;;;;;;1999.90;999.90;;;19.50;99.90;;;;;;5046194;28;20454;-70
2022/08/03 04:48:19;;;;;;;1999.90;999.90;;;19.60;99.90;;;;;;5045566;28;20471;-71
2022/08/03 04:50:48;;;;;;;1999.90;999.90;;;19.90;99.90;;;;;;5047018;28;20451;-72
2022/08/03 04:53:16;;;;;;;1999.90;999.90;;;20.20;99.90;;;;;;5051150;23;20499;-73
2022/08/03 04:55:43;;;;;;;1999.90;999.90;;;20.60;99.90;;;;;;5044860;28;20461;-72
2022/08/03 04:58:11;;;;;;;1999.90;999.90;;;20.80;99.90;;;;;;5042680;28;20541;-71
2022/08/03 05:00:38;;;;;;;1999.90;999.90;;;21.10;99.90;;;;;;5024231;28;20479;-71
2022/08/03 05:03:04;;;;;;;1999.90;999.90;;;21.30;99.90;;;;;;5037804;28;21006;-72
2022/08/03 05:05:31;;;;;;;1999.90;999.90;;;21.50;99.90;;;;;;5057081;28;20551;-72
2022/08/03 05:07:59;;;;;;;1999.90;999.90;;;21.10;99.90;;;;;;5059571;28;20456;-73
2022/08/03 05:10:26;;;;;;;1999.90;999.90;;;20.90;99.90;;;;;;5063107;28;20465;-71
2022/08/03 05:12:52;;;;;;;1999.90;999.90;;;21.00;99.90;;;;;;5066264;28;21032;-73
2022/08/03 05:15:19;;;;;;;1999.90;999.90;;;21.10;99.90;;;;;;5035629;28;20462;-71
2022/08/03 05:17:46;;;;;;;1999.90;999.90;;;21.40;99.90;;;;;;5049877;28;20457;-71
2022/08/03 05:20:12;;;;;;;1999.90;999.90;;;21.70;99.90;;;;;;5055267;28;20965;-74
2022/08/03 05:22:39;;;;;;;1999.90;999.90;;;21.50;99.90;;;;;;5067070;28;20481;-73
2022/08/03 05:25:08;;;;;;;1999.90;999.90;;;22.00;99.90;;;;;;5054497;28;20555;-72
2022/08/03 05:27:34;;;;;;;1999.90;999.90;;;22.10;99.90;;;;;;5059039;28;20454;-72
2022/08/03 05:30:01;;;;;;;1999.90;999.90;;;22.20;99.90;;;;;;5051910;28;20496;-73
2022/08/03 05:32:28;;;;;;;1999.90;999.90;;;22.40;99.90;;;;;;5050454;28;20511;-72
2022/08/03 05:34:55;;;;;;;1999.90;999.90;;;22.50;99.90;;;;;;5057238;28;20457;-73
2022/08/03 05:37:21;;;;;;;1999.90;999.90;;;22.40;99.90;;;;;;5056447;28;20580;-72
2022/08/03 05:39:48;;;;;;;1999.90;999.90;;;22.10;99.90;;;;;;5058808;28;20910;-72
2022/08/03 05:42:16;;;;;;;1999.90;999.90;;;22.00;99.90;;;;;;5056591;28;20479;-69
2022/08/03 05:44:43;;;;;;;1999.90;999.90;;;22.20;99.90;;;;;;5054812;28;20493;-72
2022/08/03 05:47:09;;;;;;;1999.90;999.90;;;22.30;99.90;;;;;;5062500;28;20454;-71
2022/08/03 05:49:36;;;;;;;1999.90;999.90;;;22.60;99.90;;;;;;5051898;28;20447;-72
2022/08/03 05:52:03;;;;;;;1999.90;999.90;;;22.70;99.90;;;;;;5050969;28;20477;-70
2022/08/03 05:54:30;;;;;;;1999.90;999.90;;;23.20;99.90;;;;;;5055249;28;20867;-70
2022/08/03 05:56:56;;;;;;;1999.90;999.90;;;23.20;99.90;;;;;;5064711;28;20531;-72
2022/08/03 05:59:25;;;;;;;1999.90;999.90;;;23.60;99.90;;;;;;5059287;28;21551;-71
2022/08/03 06:01:52;;;;;;;1999.90;999.90;;;23.80;99.90;;;;;;5065802;28;20458;-71
2022/08/03 06:04:18;;;;;;;1999.90;999.90;;;24.10;99.90;;;;;;5061193;28;20457;-70
2022/08/03 06:06:45;;;;;;;1999.90;999.90;;;24.50;99.90;;;;;;5056989;28;20453;-72
2022/08/03 06:09:12;;;;;;;1999.90;999.90;;;24.70;99.90;;;;;;5056037;28;20535;-70
2022/08/03 06:11:39;;;;;;;1999.90;999.90;;;24.90;99.90;;;;;;5054765;28;20466;-74
2022/08/03 06:14:05;;;;;;;1999.90;999.90;;;25.00;99.90;;;;;;5059104;28;20846;-72
2022/08/03 06:16:34;;;;;;;1999.90;999.90;;;24.90;99.90;;;;;;5060664;28;20453;-73
2022/08/03 06:19:01;;;;;;;1999.90;999.90;;;24.90;99.90;;;;;;5051641;28;20450;-73
2022/08/03 06:21:27;;;;;;;1999.90;999.90;;;24.90;99.90;;;;;;5054460;28;20518;-71
2022/08/03 06:23:54;;;;;;;1999.90;999.90;;;25.00;99.90;;;;;;5062711;28;20505;-74
2022/08/03 06:26:20;;;;;;;1999.90;999.90;;;25.20;99.90;;;;;;5049078;28;20490;-73
2022/08/03 06:28:48;;;;;;;1999.90;999.90;;;25.30;99.90;;;;;;5048586;28;20457;-72
2022/08/03 06:31:14;;;;;;;1999.90;999.90;;;25.50;99.90;;;;;;5046899;28;20458;-71
2022/08/03 06:33:42;;;;;;;1999.90;999.90;;;25.50;99.80;;;;;;5051818;28;20485;-71
2022/08/03 06:36:09;;;;;;;1999.90;999.90;;;25.80;97.60;;;;;;5052804;28;20592;-70
2022/08/03 06:38:36;;;;;;;1999.90;999.90;;;25.90;98.00;;;;;;5047829;28;21008;-72
2022/08/03 06:41:02;;;;;;;1999.90;999.90;;;26.10;97.40;;;;;;5047847;28;20478;-71
2022/08/03 06:43:29;;;;;;;1999.90;999.90;;;26.40;97.10;;;;;;5049208;28;21010;-70
2022/08/03 06:45:55;;;;;;;1999.90;999.90;;;26.40;97.80;;;;;;5044288;28;20459;-72
2022/08/03 06:48:22;;;;;;;1999.90;999.90;;;26.40;97.60;;;;;;5042862;28;20459;-69
2022/08/03 06:50:50;;;;;;;1999.90;999.90;;;26.40;96.70;;;;;;5059821;28;20445;-70
2022/08/03 06:53:17;;;;;;;1999.90;999.90;;;26.50;97.50;;;;;;5049632;28;20548;-70
2022/08/03 06:55:43;;;;;;;1999.90;999.90;;;26.40;97.60;;;;;;5042869;28;20564;-72
2022/08/03 06:58:10;;;;;;;1999.90;999.90;;;26.70;95.50;;;;;;5046538;28;20488;-70
2022/08/03 07:00:36;;;;;;;1999.90;999.90;;;27.00;96.20;;;;;;5052458;28;20489;-71
2022/08/03 07:03:03;;;;;;;1999.90;999.90;;;27.40;94.60;;;;;;5054433;28;20491;-70
2022/08/03 07:05:32;;;;;;;1999.90;999.90;;;27.40;95.30;;;;;;5039422;28;20811;-70
2022/08/03 07:08:01;;;;;;;1999.90;999.90;;;27.20;95.60;;;;;;5042016;28;21000;-72
2022/08/03 07:10:29;;;;;;;1999.90;999.90;;;27.20;95.10;;;;;;5044899;28;20434;-70
2022/08/03 07:12:55;;;;;;;1999.90;999.90;;;27.60;95.30;;;;;;5048400;28;20466;-70
2022/08/03 07:15:23;;;;;;;1999.90;999.90;;;27.70;94.90;;;;;;5051872;28;20502;-74
2022/08/03 07:17:49;;;;;;;1999.90;999.90;;;27.80;94.70;;;;;;5037443;28;20798;-73
2022/08/03 07:20:17;;;;;;;1999.90;999.90;;;27.90;94.40;;;;;;5045811;28;20469;-71
2022/08/03 07:22:43;;;;;;;1999.90;999.90;;;27.90;94.40;;;;;;5046220;28;20971;-74
2022/08/03 07:25:11;;;;;;;1999.90;999.90;;;28.50;92.60;;;;;;5051900;28;20441;-70
2022/08/03 07:27:38;;;;;;;1999.90;999.90;;;28.50;92.40;;;;;;5051531;28;20430;-74
2022/08/03 07:30:08;;;;;;;1999.90;999.90;;;28.60;93.10;;;;;;5043250;28;20435;-73
2022/08/03 07:32:34;;;;;;;1999.90;999.90;;;28.70;91.50;;;;;;5052135;28;20454;-72
2022/08/03 07:35:02;;;;;;;1999.90;999.90;;;29.10;90.30;;;;;;5051608;28;20434;-72
2022/08/03 07:37:29;;;;;;;1999.90;999.90;;;29.30;90.50;;;;;;5051961;28;20442;-72
2022/08/03 07:39:56;;;;;;;1999.90;999.90;;;29.50;90.00;;;;;;5050928;28;20446;-70
2022/08/03 07:42:24;;;;;;;1999.90;999.90;;;29.70;90.70;;;;;;5043475;28;20450;-72
2022/08/03 07:44:51;;;;;;;1999.90;999.90;;;29.80;89.00;;;;;;5051398;28;20981;-71
2022/08/03 07:47:19;;;;;;;1999.90;999.90;;;29.90;90.50;;;;;;5051909;28;20495;-73
2022/08/03 07:49:45;;;;;;;1999.90;999.90;;;29.60;90.20;;;;;;5051833;28;20426;-73
2022/08/03 07:54:56;;;;;;;1999.90;999.90;;;30.30;88.20;;;;;;5043253;28;20480;-71
2022/08/03 07:57:24;;;;;;;1999.90;999.90;;;30.70;87.70;;;;;;5051932;28;20434;-73
2022/08/03 07:59:50;;;;;;;1999.90;999.90;;;30.10;85.50;;;;;;5051897;28;20492;-72
2022/08/03 08:02:17;;;;;;;1999.90;999.90;;;30.00;85.90;;;;;;5051467;28;20516;-72
2022/08/03 08:04:44;;;;;;;1999.90;999.90;;;30.20;86.10;;;;;;5047988;28;21067;-72
2022/08/03 08:07:10;;;;;;;1999.90;999.90;;;30.60;84.30;;;;;;5042894;28;20435;-72
2022/08/03 08:09:37;;;;;;;1999.90;999.90;;;30.60;83.30;;;;;;5051713;28;20445;-74
2022/08/03 08:12:04;;;;;;;1999.90;999.90;;;30.20;83.60;;;;;;5051747;28;20508;-73
2022/08/03 08:14:32;;;;;;;1999.90;999.90;;;30.00;83.40;;;;;;5051380;28;20434;-73
2022/08/03 08:16:59;;;;;;;1999.90;999.90;;;29.80;84.30;;;;;;5051037;28;20524;-72
2022/08/03 08:19:25;;;;;;;1999.90;999.90;;;30.20;83.20;;;;;;5046075;28;20434;-72
2022/08/03 08:21:52;;;;;;;1999.90;999.90;;;30.30;82.10;;;;;;5055688;28;20881;-73
2022/08/03 08:24:19;;;;;;;1999.90;999.90;;;30.60;82.20;;;;;;5055667;28;20442;-72
2022/08/03 08:26:45;;;;;;;1999.90;999.90;;;30.70;81.70;;;;;;5050910;28;20457;-73
2022/08/03 08:29:12;;;;;;;1999.90;999.90;;;30.40;82.00;;;;;;5053739;28;20467;-73
2022/08/03 08:31:40;;;;;;;1999.90;999.90;;;30.80;81.50;;;;;;5046376;28;20906;-71
2022/08/03 08:34:06;;;;;;;1999.90;999.90;;;31.20;80.50;;;;;;5055008;28;20450;-72
2022/08/03 08:36:33;;;;;;;1999.90;999.90;;;31.70;78.80;;;;;;5054388;28;20454;-72
2022/08/03 08:39:00;;;;;;;1999.90;999.90;;;32.00;78.60;;;;;;5052802;28;20565;-72
2022/08/03 08:41:27;;;;;;;1999.90;999.90;;;31.30;77.00;;;;;;5044934;28;20563;-74
2022/08/03 08:43:54;;;;;;;1999.90;999.90;;;31.40;79.00;;;;;;5046294;28;20483;-73
2022/08/03 08:46:21;;;;;;;1999.90;999.90;;;31.60;77.70;;;;;;5052586;28;20454;-73
2022/08/03 08:48:50;;;;;;;1999.90;999.90;;;31.60;77.50;;;;;;5049550;28;20515;-72
2022/08/03 08:51:21;;;;;;;1999.90;999.90;;;31.70;76.00;;;;;;5043045;28;20449;-73
2022/08/03 08:53:51;;;;;;;1999.90;999.90;;;31.60;75.70;;;;;;5049020;28;20490;-73
2022/08/03 08:56:20;;;;;;;1999.90;999.90;;;31.40;75.50;;;;;;5051668;28;20520;-70
2022/08/03 08:58:50;;;;;;;1999.90;999.90;;;31.10;77.20;;;;;;5053017;28;20465;-71
2022/08/03 09:01:19;;;;;;;1999.90;999.90;;;31.30;76.60;;;;;;5048308;28;20480;-73
2022/08/03 09:03:45;;;;;;;1999.90;999.90;;;30.60;76.50;;;;;;5041098;28;20522;-73
2022/08/03 09:06:14;;;;;;;1999.90;999.90;;;30.60;77.90;;;;;;5053220;28;20465;-71
2022/08/03 09:08:40;;;;;;;1999.90;999.90;;;31.20;76.40;;;;;;5053261;28;20454;-71
2022/08/03 09:11:07;;;;;;;1999.90;999.90;;;31.50;75.10;;;;;;5053478;28;20520;-72
2022/08/03 09:13:34;;;;;;;1999.90;999.90;;;31.90;74.70;;;;;;5045747;28;20479;-73
2022/08/03 09:16:13;;;;;;;1999.90;999.90;;;31.80;73.30;;;;;;5048161;28;20454;-72
2022/08/03 09:18:40;;;;;;;1999.90;999.90;;;32.10;72.00;;;;;;5054132;28;20487;-73
2022/08/03 09:21:16;;;;;;;1999.90;999.90;;;31.80;72.60;;;;;;5054267;28;20478;-73
2022/08/03 09:23:47;;;;;;;1999.90;999.90;;;32.00;71.70;;;;;;5053869;28;20461;-71
2022/08/03 09:26:20;;;;;;;1999.90;999.90;;;31.80;72.20;;;;;;5049543;28;20511;-73
2022/08/03 09:28:46;;;;;;;1999.90;999.90;;;31.90;72.00;;;;;;5051497;28;20457;-70
2022/08/03 09:31:13;;;;;;;1999.90;999.90;;;32.20;71.40;;;;;;5054131;28;20461;-72
2022/08/03 09:33:47;;;;;;;1999.90;999.90;;;32.50;70.70;;;;;;5051331;28;21000;-72
2022/08/03 09:36:37;;;;;;;1999.90;999.90;;;32.80;70.80;;;;;;5052203;28;20438;-73
2022/08/03 09:39:05;;;;;;;1999.90;999.90;;;33.20;69.10;;;;;;5041669;28;20515;-73
2022/08/03 09:41:32;;;;;;;1999.90;999.90;;;33.20;68.10;;;;;;5049190;28;20578;-72
2022/08/03 09:43:59;;;;;;;1999.90;999.90;;;32.80;69.20;;;;;;5049505;28;20482;-73
2022/08/03 09:46:30;;;;;;;1999.90;999.90;;;32.20;69.20;;;;;;5048682;28;20994;-72
2022/08/03 09:49:09;;;;;;;1999.90;999.90;;;32.10;69.30;;;;;;5051844;28;20478;-74
2022/08/03 09:51:37;;;;;;;1999.90;999.90;;;32.30;69.50;;;;;;5043281;28;20511;-73
2022/08/03 09:54:04;;;;;;;1999.90;999.90;;;32.30;67.50;;;;;;5049329;28;20462;-73
2022/08/03 09:56:41;;;;;;;1999.90;999.90;;;32.20;67.60;;;;;;5050610;28;20462;-71
2022/08/03 09:59:09;;;;;;;1999.90;999.90;;;32.20;69.50;;;;;;5051489;28;20451;-73
2022/08/03 10:01:37;;;;;;;1999.90;999.90;;;32.50;68.50;;;;;;5043011;28;20536;-73
2022/08/03 10:04:04;;;;;;;1999.90;999.90;;;32.50;68.20;;;;;;5050266;28;20454;-74
2022/08/03 10:06:31;;;;;;;1999.90;999.90;;;32.60;67.90;;;;;;5052209;28;20459;-71
2022/08/03 10:09:09;;;;;;;1999.90;999.90;;;32.50;67.20;;;;;;5049916;28;20462;-71
2022/08/03 10:11:37;;;;;;;1999.90;999.90;;;32.20;67.10;;;;;;5040915;28;20513;-71
2022/08/03 10:14:05;;;;;;;1999.90;999.90;;;32.50;68.30;;;;;;5042491;28;20508;-73
2022/08/03 10:16:35;;;;;;;1999.90;999.90;;;33.00;66.80;;;;;;5046120;28;20508;-73
2022/08/03 10:19:03;;;;;;;1999.90;999.90;;;33.00;66.40;;;;;;5050173;28;20574;-73
2022/08/03 10:21:33;;;;;;;1999.90;999.90;;;32.90;65.10;;;;;;5055361;28;20838;-73
2022/08/03 10:24:04;;;;;;;1999.90;999.90;;;32.80;65.80;;;;;;5043521;28;20517;-71
2022/08/03 10:26:34;;;;;;;1999.90;999.90;;;32.30;67.40;;;;;;5041435;28;20550;-72
2022/08/03 10:29:03;;;;;;;1999.90;999.90;;;32.30;66.20;;;;;;5049800;28;20527;-72
2022/08/03 10:31:37;;;;;;;1999.90;999.90;;;32.50;67.80;;;;;;5053360;28;20442;-70
2022/08/03 10:34:08;;;;;;;1999.90;999.90;;;32.60;67.10;;;;;;5052891;28;20908;-72
2022/08/03 10:36:38;;;;;;;1999.90;999.90;;;32.90;67.10;;;;;;5051697;28;20466;-70
2022/08/03 10:39:04;;;;;;;1999.90;999.90;;;32.60;67.10;;;;;;5043899;28;20454;-73
2022/08/03 10:41:37;;;;;;;1999.90;999.90;;;32.60;67.70;;;;;;5051330;28;20486;-70
2022/08/03 10:44:08;;;;;;;1999.90;999.90;;;32.90;66.80;;;;;;5044166;28;20438;-73
2022/08/03 10:46:36;;;;;;;1999.90;999.90;;;33.00;65.60;;;;;;5046930;28;20459;-71
2022/08/03 10:49:03;;;;;;;1999.90;999.90;;;33.00;67.20;;;;;;5053941;28;20461;-71
2022/08/03 10:51:31;;;;;;;1999.90;999.90;;;32.70;66.00;;;;;;5056163;28;20458;-70
2022/08/03 10:53:59;;;;;;;1999.90;999.90;;;32.80;65.80;;;;;;5053000;23;20507;-71
2022/08/03 10:59:58;;;;;;;1999.90;999.90;;;32.80;66.70;;;;;;5017650;28;20466;-69
2022/08/03 11:03:03;;;;;;;1999.90;999.90;;;33.00;65.90;;;;;;5018146;28;20582;-71
2022/08/03 11:05:30;;;;;;;1999.90;999.90;;;32.90;66.30;;;;;;4988541;28;20480;-70
2022/08/03 11:08:29;;;;;;;1999.90;999.90;;;33.00;65.40;;;;;;4990001;28;20508;-70
2022/08/03 11:10:59;;;;;;;1999.90;999.90;;;33.00;64.60;;;;;;4999307;28;20511;-71
2022/08/03 11:13:30;;;;;;;1999.90;999.90;;;32.80;63.30;;;;;;4990326;28;21006;-70
2022/08/03 11:16:00;;;;;;;1999.90;999.90;;;32.80;67.90;;;;;;4988736;28;20549;-71
2022/08/03 11:18:27;;;;;;;1999.90;999.90;;;32.60;67.00;;;;;;4991602;28;20783;-70
2022/08/03 11:20:56;;;;;;;1999.90;999.90;;;32.80;66.00;;;;;;4992775;28;20930;-68
2022/08/03 11:23:44;;;;;;;1999.90;999.90;;;33.10;66.40;;;;;;5003526;28;20476;-68
2022/08/03 11:26:12;;;;;;;1999.90;999.90;;;33.70;66.60;;;;;;4990660;28;20475;-68
2022/08/03 11:28:42;;;;;;;1999.90;999.90;;;33.80;63.20;;;;;;4996945;28;20507;-68
2022/08/03 11:31:56;;;;;;;1999.90;999.90;;;33.80;63.70;;;;;;4992605;28;20959;-68
2022/08/03 11:34:23;;;;;;;1999.90;999.90;;;33.60;63.40;;;;;;4985282;28;20480;-68
2022/08/03 11:37:19;;;;;;;1999.90;999.90;;;33.50;63.20;;;;;;5001388;28;20472;-71
2022/08/03 11:39:47;;;;;;;1999.90;999.90;;;33.50;64.30;;;;;;4991923;28;20468;-68
2022/08/03 11:42:39;;;;;;;1999.90;999.90;;;33.20;62.20;;;;;;4992819;28;20550;-68
2022/08/03 11:45:09;;;;;;;1999.90;999.90;;;33.40;63.00;;;;;;4991029;28;20475;-68
2022/08/03 11:47:39;;;;;;;1999.90;999.90;;;33.60;63.10;;;;;;4987293;28;20464;-70
2022/08/03 11:50:06;;;;;;;1999.90;999.90;;;33.10;64.50;;;;;;4995202;28;20457;-70
2022/08/03 11:52:37;;;;;;;1999.90;999.90;;;33.00;64.20;;;;;;4998790;28;20849;-71
2022/08/03 11:55:10;;;;;;;1999.90;999.90;;;33.10;63.60;;;;;;4991004;28;20495;-71
2022/08/03 11:57:37;;;;;;;1999.90;999.90;;;33.10;63.10;;;;;;4999274;28;20517;-71
2022/08/03 12:00:19;;;;;;;1999.90;999.90;;;32.90;63.60;;;;;;4992967;28;20468;-70
2022/08/03 12:02:59;;;;;;;1999.90;999.90;;;32.90;63.50;;;;;;4991967;28;20934;-71
2022/08/03 12:05:37;;;;;;;1999.90;999.90;;;33.20;63.60;;;;;;4991943;28;20468;-68
2022/08/03 12:08:04;;;;;;;1999.90;999.90;;;33.40;63.30;;;;;;4993739;28;20519;-70
2022/08/03 12:10:31;;;;;;;1999.90;999.90;;;33.60;61.20;;;;;;4991227;28;20470;-70
2022/08/03 12:12:58;;;;;;;1999.90;999.90;;;33.30;64.20;;;;;;4993218;28;20949;-70
2022/08/03 12:15:26;;;;;;;1999.90;999.90;;;33.60;62.90;;;;;;4985685;28;20518;-71
2022/08/03 12:17:52;;;;;;;1999.90;999.90;;;33.20;62.40;;;;;;4989814;28;20519;-71
2022/08/03 12:20:23;;;;;;;1999.90;999.90;;;33.20;63.30;;;;;;4991736;28;20464;-68